aviador You're here:

KGLS Decoded Metar

GALVESTON in TX, USA
Report Time2018-05-21 15:52:00
UTC Time2018-05-21 16:44:57
Flight Rules vfr VFR
Wind160° at 09 kt
W.Decomp.*RWY 14: 8.6 kt HW 2.8 kt RCW
RWY 18: 8.3 kt HW 3.4 kt LCW
W.Rank160° ranks 2
Current wind is below 160° avg. (10.1)
Visibility9999 m
Phenomena:N/A
Clouds:N/A
Expected CloudBase > 1,600 ft AGL from Temp-Dew spread
CeilingNone
Temp28°C (ISA +13)
Dew Point24°C (79% RH)
Heat Index31.9°C
QNH1017 hPa
Density Alt1,778 ft
Elevation20 ft
Report Wrong Elevation
Raw Report
KGLS 211552Z 16009KT 10SM CLR 28/24 A3002 RMK AO2 LTG DSNT N
SLP166 T02830244=

Extra information for KGLS:More info

Metar Taf Metar & Taf Last 4 Metars F.Rules Stats Wind Profile Meteogram Temp Stats Airport Information Weather charts Add Link Nearby VenuesMetar ALERT Operation Metar Decoded Social comments

AIRNAV info for KGLS